Time;durP1;ratioP1;P1;durP2;ratioP2;P2;SDS_P1;SDS_P2;PMS_P1;PMS_P2;Temp;Humidity;BMP_temperature;BMP_pressure;BME280_temperature;BME280_humidity;BME280_pressure;Samples;Min_cycle;Max_cycle;Signal;HPM_P1;HPM_P2
2023/09/17 00:01:05;;;;;;;9.75;5.60;;;;;;;;;;4993780;28;20031;-75
2023/09/17 00:03:32;;;;;;;10.25;5.60;;;;;;;;;;4993668;28;20026;-75
2023/09/17 00:05:57;;;;;;;9.88;6.00;;;;;;;;;;4993799;28;20106;-75
2023/09/17 00:08:22;;;;;;;8.23;5.30;;;;;;;;;;4993569;28;20114;-75
2023/09/17 00:10:49;;;;;;;6.93;5.57;;;;;;;;;;4993568;28;20473;-75
2023/09/17 00:13:14;;;;;;;6.72;5.43;;;;;;;;;;4993359;28;20680;-75
2023/09/17 00:15:40;;;;;;;8.55;5.45;;;;;;;;;;4975973;28;20113;-74
2023/09/17 00:18:05;;;;;;;8.32;5.80;;;;;;;;;;4993608;28;20437;-74
2023/09/17 00:20:30;;;;;;;7.78;5.40;;;;;;;;;;4993543;28;20515;-75
2023/09/17 00:22:56;;;;;;;6.35;4.95;;;;;;;;;;4978340;28;20034;-74
2023/09/17 00:25:21;;;;;;;8.70;5.25;;;;;;;;;;4998233;28;20454;-75
2023/09/17 00:27:46;;;;;;;10.30;5.50;;;;;;;;;;4979987;28;20018;-74
2023/09/17 00:30:13;;;;;;;6.72;4.90;;;;;;;;;;4997668;28;20256;-74
2023/09/17 00:32:38;;;;;;;6.53;5.05;;;;;;;;;;4997061;28;20030;-74
2023/09/17 00:35:05;;;;;;;7.68;5.40;;;;;;;;;;4979546;28;20099;-74
2023/09/17 00:37:30;;;;;;;6.40;5.10;;;;;;;;;;4996944;28;20031;-74
2023/09/17 00:39:55;;;;;;;7.23;5.20;;;;;;;;;;4979698;28;20029;-74
2023/09/17 00:42:21;;;;;;;9.00;5.25;;;;;;;;;;4997140;28;20354;-74
2023/09/17 00:44:46;;;;;;;7.73;4.97;;;;;;;;;;4979353;28;20057;-74
2023/09/17 00:47:12;;;;;;;6.95;4.70;;;;;;;;;;4996765;28;20343;-75
2023/09/17 00:49:38;;;;;;;9.02;5.13;;;;;;;;;;4979233;28;20397;-75
2023/09/17 00:52:13;;;;;;;7.32;4.93;;;;;;;;;;4979188;28;20397;-74
2023/09/17 00:54:39;;;;;;;6.63;4.55;;;;;;;;;;4996622;28;20058;-75
2023/09/17 00:57:04;;;;;;;6.20;4.55;;;;;;;;;;4996657;28;20033;-74
2023/09/17 00:59:30;;;;;;;8.48;4.70;;;;;;;;;;4996735;28;20389;-75
2023/09/17 01:01:55;;;;;;;7.35;4.53;;;;;;;;;;4979018;28;20026;-75
2023/09/17 01:04:21;;;;;;;8.30;4.47;;;;;;;;;;4996466;28;20033;-75
2023/09/17 01:06:46;;;;;;;5.40;4.50;;;;;;;;;;4996963;28;20465;-75
2023/09/17 01:09:12;;;;;;;8.70;4.25;;;;;;;;;;4979256;28;20042;-75
2023/09/17 01:11:37;;;;;;;6.40;4.60;;;;;;;;;;4996381;28;20053;-74
2023/09/17 01:14:12;;;;;;;5.30;4.30;;;;;;;;;;4996220;28;20030;-74
2023/09/17 01:16:41;;;;;;;8.93;4.55;;;;;;;;;;4978853;28;20026;-74
2023/09/17 01:19:09;;;;;;;5.95;4.20;;;;;;;;;;4996626;28;20477;-74
2023/09/17 01:21:40;;;;;;;5.65;4.15;;;;;;;;;;4996153;28;20481;-74
2023/09/17 01:24:21;;;;;;;9.73;4.53;;;;;;;;;;4996920;28;20049;-75
2023/09/17 01:27:01;;;;;;;7.95;4.32;;;;;;;;;;4996321;28;20109;-74
2023/09/17 01:29:34;;;;;;;7.65;4.03;;;;;;;;;;4996281;28;20034;-75
2023/09/17 01:31:59;;;;;;;8.38;4.10;;;;;;;;;;4979119;28;20038;-75
2023/09/17 01:34:25;;;;;;;8.10;4.00;;;;;;;;;;4995267;28;20026;-75
2023/09/17 01:36:54;;;;;;;10.75;4.88;;;;;;;;;;4995867;28;20023;-74
2023/09/17 01:39:23;;;;;;;5.15;3.97;;;;;;;;;;4996295;28;20034;-74
2023/09/17 01:41:49;;;;;;;4.78;4.00;;;;;;;;;;4978591;28;20022;-74
2023/09/17 01:44:15;;;;;;;6.45;4.10;;;;;;;;;;4995797;28;20398;-74
2023/09/17 01:46:41;;;;;;;8.52;4.38;;;;;;;;;;4996046;28;20113;-74
2023/09/17 01:49:09;;;;;;;5.78;3.85;;;;;;;;;;4995781;28;20101;-75
2023/09/17 01:51:37;;;;;;;7.25;4.40;;;;;;;;;;4995898;28;20046;-75
2023/09/17 01:54:03;;;;;;;6.13;4.30;;;;;;;;;;4995497;28;20544;-75
2023/09/17 01:56:28;;;;;;;6.10;4.10;;;;;;;;;;4995820;28;20393;-75
2023/09/17 01:58:53;;;;;;;6.13;4.00;;;;;;;;;;4995574;28;20028;-75
2023/09/17 02:01:19;;;;;;;7.93;4.40;;;;;;;;;;4977953;28;20781;-75
2023/09/17 02:03:44;;;;;;;7.35;4.20;;;;;;;;;;4995328;28;20255;-75
2023/09/17 02:06:09;;;;;;;6.55;4.00;;;;;;;;;;4995913;28;20038;-74
2023/09/17 02:08:36;;;;;;;5.13;3.77;;;;;;;;;;4995374;28;20078;-75
2023/09/17 02:11:04;;;;;;;4.35;3.92;;;;;;;;;;4995237;28;20806;-74
2023/09/17 02:13:29;;;;;;;5.38;3.90;;;;;;;;;;4995237;28;20109;-75
2023/09/17 02:15:55;;;;;;;5.32;3.90;;;;;;;;;;4995254;28;20061;-74
2023/09/17 02:18:21;;;;;;;5.57;3.70;;;;;;;;;;4995250;28;20108;-75
2023/09/17 02:20:46;;;;;;;7.05;3.78;;;;;;;;;;4995038;28;20279;-75
2023/09/17 02:23:11;;;;;;;7.07;3.78;;;;;;;;;;4977834;28;20397;-76
2023/09/17 02:25:37;;;;;;;6.13;3.95;;;;;;;;;;4995043;28;20053;-74
2023/09/17 02:28:02;;;;;;;5.20;4.10;;;;;;;;;;4994970;28;20033;-75
2023/09/17 02:30:28;;;;;;;5.03;3.80;;;;;;;;;;4994878;28;20052;-75
2023/09/17 02:32:53;;;;;;;5.43;3.97;;;;;;;;;;4995018;28;20482;-74
2023/09/17 02:35:19;;;;;;;6.82;4.05;;;;;;;;;;4995076;28;20034;-75
2023/09/17 02:37:44;;;;;;;5.67;4.27;;;;;;;;;;4994800;28;20037;-75
2023/09/17 02:40:09;;;;;;;5.95;4.00;;;;;;;;;;4993915;28;20391;-76
2023/09/17 02:42:36;;;;;;;9.18;4.00;;;;;;;;;;4992924;28;20037;-76
2023/09/17 02:45:02;;;;;;;5.90;4.00;;;;;;;;;;4992054;28;20026;-76
2023/09/17 02:47:27;;;;;;;7.03;4.38;;;;;;;;;;4974780;28;20580;-76
2023/09/17 02:49:53;;;;;;;5.40;3.72;;;;;;;;;;4992488;28;20118;-76
2023/09/17 02:52:18;;;;;;;8.77;4.10;;;;;;;;;;4994358;28;20030;-75
2023/09/17 02:54:44;;;;;;;9.30;4.30;;;;;;;;;;4993768;28;20314;-74
2023/09/17 02:57:09;;;;;;;4.68;3.63;;;;;;;;;;4994466;28;20030;-75
2023/09/17 02:59:35;;;;;;;4.25;3.67;;;;;;;;;;4976882;28;20026;-75
2023/09/17 03:02:00;;;;;;;5.65;4.20;;;;;;;;;;4994378;28;20025;-74
2023/09/17 03:04:26;;;;;;;5.38;3.75;;;;;;;;;;4994276;28;20030;-74
2023/09/17 03:06:52;;;;;;;4.70;3.65;;;;;;;;;;4994668;28;20029;-75
2023/09/17 03:09:18;;;;;;;8.00;3.83;;;;;;;;;;4994727;28;20022;-74
2023/09/17 03:11:43;;;;;;;5.30;4.07;;;;;;;;;;4976966;28;20038;-75
2023/09/17 03:14:09;;;;;;;5.38;3.72;;;;;;;;;;4994106;28;20102;-75
2023/09/17 03:16:34;;;;;;;6.05;3.90;;;;;;;;;;4994033;28;20481;-75
2023/09/17 03:19:00;;;;;;;5.55;3.65;;;;;;;;;;4976675;28;20092;-74
2023/09/17 03:21:25;;;;;;;5.57;4.18;;;;;;;;;;4993993;28;20474;-75
2023/09/17 03:23:50;;;;;;;6.90;3.75;;;;;;;;;;4976674;28;20428;-75
2023/09/17 03:26:16;;;;;;;6.07;3.60;;;;;;;;;;4993970;28;20430;-75
2023/09/17 03:28:41;;;;;;;10.75;3.78;;;;;;;;;;4976468;28;20516;-75
2023/09/17 03:31:07;;;;;;;5.82;3.70;;;;;;;;;;4993905;28;20165;-75
2023/09/17 03:33:32;;;;;;;7.47;3.97;;;;;;;;;;4976361;28;20425;-74
2023/09/17 03:36:00;;;;;;;5.57;3.75;;;;;;;;;;4994040;28;20047;-74
2023/09/17 03:38:25;;;;;;;7.72;3.55;;;;;;;;;;4993858;28;20556;-75
2023/09/17 03:40:51;;;;;;;4.25;3.55;;;;;;;;;;4994046;28;20031;-75
2023/09/17 03:43:16;;;;;;;4.75;3.55;;;;;;;;;;4994088;28;20390;-75
2023/09/17 03:45:41;;;;;;;4.90;3.63;;;;;;;;;;4976263;28;20049;-75
2023/09/17 03:48:07;;;;;;;6.90;3.70;;;;;;;;;;4976275;28;20041;-74
2023/09/17 03:50:35;;;;;;;5.03;3.67;;;;;;;;;;4976409;28;20014;-74
2023/09/17 03:53:05;;;;;;;4.78;4.10;;;;;;;;;;4976153;28;20448;-74
2023/09/17 03:55:31;;;;;;;5.75;3.80;;;;;;;;;;4976154;28;20049;-75
2023/09/17 03:57:57;;;;;;;7.00;3.78;;;;;;;;;;4996572;28;20026;-75
2023/09/17 04:00:23;;;;;;;5.18;3.50;;;;;;;;;;4997918;28;20022;-74
2023/09/17 04:02:49;;;;;;;6.53;4.10;;;;;;;;;;4997670;28;20026;-75
2023/09/17 04:05:16;;;;;;;6.63;3.20;;;;;;;;;;4997931;28;20030;-75
2023/09/17 04:07:44;;;;;;;5.28;3.40;;;;;;;;;;4980024;28;20502;-75
2023/09/17 04:10:14;;;;;;;5.90;3.45;;;;;;;;;;4997797;28;20131;-75
2023/09/17 04:12:40;;;;;;;7.38;3.78;;;;;;;;;;4980054;28;20033;-75
2023/09/17 04:15:10;;;;;;;7.32;3.72;;;;;;;;;;4997305;28;20069;-74
2023/09/17 04:17:35;;;;;;;5.13;3.92;;;;;;;;;;4997362;28;20022;-75
2023/09/17 04:20:01;;;;;;;4.88;3.70;;;;;;;;;;4997383;28;20030;-75
2023/09/17 04:22:26;;;;;;;4.20;3.60;;;;;;;;;;4997279;28;20033;-75
2023/09/17 04:24:51;;;;;;;5.73;3.80;;;;;;;;;;4997530;28;20349;-75
2023/09/17 04:27:17;;;;;;;6.40;3.65;;;;;;;;;;4997251;28;20314;-75
2023/09/17 04:29:42;;;;;;;7.57;3.72;;;;;;;;;;4979632;28;20018;-75
2023/09/17 04:32:07;;;;;;;7.37;3.20;;;;;;;;;;4997204;28;20398;-74
2023/09/17 04:34:32;;;;;;;7.30;3.70;;;;;;;;;;4996971;28;20327;-75
2023/09/17 04:36:58;;;;;;;4.80;3.50;;;;;;;;;;4979519;28;20473;-75
2023/09/17 04:39:25;;;;;;;5.53;3.60;;;;;;;;;;4997165;28;20201;-74
2023/09/17 04:41:50;;;;;;;4.60;3.65;;;;;;;;;;4996944;28;20030;-75
2023/09/17 04:44:15;;;;;;;7.07;3.60;;;;;;;;;;4996819;28;20041;-74
2023/09/17 04:46:42;;;;;;;5.25;3.53;;;;;;;;;;4996765;28;20030;-74
2023/09/17 04:49:08;;;;;;;4.57;3.40;;;;;;;;;;4996761;28;20160;-74
2023/09/17 04:51:34;;;;;;;5.05;3.28;;;;;;;;;;4980111;28;20122;-75
2023/09/17 04:53:59;;;;;;;6.25;3.40;;;;;;;;;;4996692;28;20030;-74
2023/09/17 04:56:25;;;;;;;4.60;2.97;;;;;;;;;;4997313;28;20484;-74
2023/09/17 04:58:50;;;;;;;5.55;3.40;;;;;;;;;;4996791;28;20034;-75
2023/09/17 05:01:15;;;;;;;5.00;3.40;;;;;;;;;;4996629;28;20089;-75
2023/09/17 05:03:42;;;;;;;5.53;3.67;;;;;;;;;;4996512;28;20026;-74
2023/09/17 05:06:07;;;;;;;7.40;3.92;;;;;;;;;;4997230;28;20038;-74
2023/09/17 05:08:32;;;;;;;4.30;3.40;;;;;;;;;;4995742;28;20085;-74
2023/09/17 05:10:58;;;;;;;9.70;3.40;;;;;;;;;;4996504;28;20057;-75
2023/09/17 05:13:23;;;;;;;5.53;3.50;;;;;;;;;;4996335;28;20260;-74
2023/09/17 05:15:48;;;;;;;5.32;3.80;;;;;;;;;;4979193;28;20026;-74
2023/09/17 05:18:13;;;;;;;5.68;3.80;;;;;;;;;;4996291;28;20027;-74
2023/09/17 05:20:41;;;;;;;5.03;3.37;;;;;;;;;;4978835;28;20031;-74
2023/09/17 05:23:07;;;;;;;4.70;3.50;;;;;;;;;;4996096;28;20256;-74
2023/09/17 05:25:32;;;;;;;4.88;3.20;;;;;;;;;;4996691;28;20077;-74
2023/09/17 05:27:58;;;;;;;5.50;3.70;;;;;;;;;;4996125;28;20026;-74
2023/09/17 05:30:23;;;;;;;4.35;3.45;;;;;;;;;;4996332;28;20068;-74
2023/09/17 05:32:48;;;;;;;5.45;3.60;;;;;;;;;;4996184;28;20030;-74
2023/09/17 05:35:13;;;;;;;5.40;3.40;;;;;;;;;;4995902;28;20489;-75
2023/09/17 05:37:39;;;;;;;4.90;3.80;;;;;;;;;;4996160;28;20742;-74
2023/09/17 05:40:05;;;;;;;4.85;3.70;;;;;;;;;;4978438;28;20493;-75
2023/09/17 05:42:31;;;;;;;6.40;3.78;;;;;;;;;;4978501;28;20109;-75
2023/09/17 05:44:59;;;;;;;5.50;3.83;;;;;;;;;;4995679;28;20083;-75
2023/09/17 05:47:24;;;;;;;8.95;3.78;;;;;;;;;;4995749;28;20030;-75
2023/09/17 05:49:50;;;;;;;4.57;3.50;;;;;;;;;;4996280;28;20529;-75
2023/09/17 05:52:16;;;;;;;7.50;3.55;;;;;;;;;;4995619;28;20283;-75
2023/09/17 05:54:41;;;;;;;5.93;3.45;;;;;;;;;;4995507;28;20473;-74
2023/09/17 05:57:06;;;;;;;5.47;3.60;;;;;;;;;;4995689;28;20018;-74
2023/09/17 05:59:32;;;;;;;5.50;3.65;;;;;;;;;;4995678;28;20772;-75
2023/09/17 06:01:58;;;;;;;5.35;3.80;;;;;;;;;;4978064;28;20033;-75
2023/09/17 06:04:23;;;;;;;4.40;3.28;;;;;;;;;;4995457;28;20374;-75
2023/09/17 06:06:48;;;;;;;4.60;3.45;;;;;;;;;;4995677;28;20064;-75
2023/09/17 06:09:13;;;;;;;4.80;3.60;;;;;;;;;;4995600;28;20026;-75
2023/09/17 06:11:39;;;;;;;5.80;3.40;;;;;;;;;;4995357;28;20018;-75
2023/09/17 06:14:04;;;;;;;5.53;3.40;;;;;;;;;;4995468;28;20340;-74
2023/09/17 06:16:29;;;;;;;6.07;3.30;;;;;;;;;;4995437;28;20027;-75
2023/09/17 06:18:54;;;;;;;4.35;3.30;;;;;;;;;;4995149;28;20024;-75
2023/09/17 06:21:20;;;;;;;4.67;3.30;;;;;;;;;;4994840;28;20470;-75
2023/09/17 06:23:45;;;;;;;8.63;3.53;;;;;;;;;;4994945;28;20259;-74
2023/09/17 06:26:10;;;;;;;4.25;3.50;;;;;;;;;;4995325;28;20366;-75
2023/09/17 06:28:36;;;;;;;4.50;3.40;;;;;;;;;;4977508;28;20113;-75
2023/09/17 06:31:01;;;;;;;6.93;3.22;;;;;;;;;;4995281;28;20061;-74
2023/09/17 06:33:27;;;;;;;4.85;3.25;;;;;;;;;;4977303;28;20397;-74
2023/09/17 06:35:53;;;;;;;9.10;3.30;;;;;;;;;;4995334;28;20073;-74
2023/09/17 06:38:18;;;;;;;6.43;3.10;;;;;;;;;;4977567;28;20034;-75
2023/09/17 06:40:43;;;;;;;4.30;3.20;;;;;;;;;;4994884;28;20089;-74
2023/09/17 06:43:08;;;;;;;5.03;3.30;;;;;;;;;;4994685;28;20018;-74
2023/09/17 06:45:34;;;;;;;4.10;2.93;;;;;;;;;;4994680;28;20420;-76
2023/09/17 06:47:59;;;;;;;6.22;2.95;;;;;;;;;;4996105;28;20252;-75
2023/09/17 06:50:24;;;;;;;5.13;2.90;;;;;;;;;;4995667;28;20022;-75
2023/09/17 06:52:50;;;;;;;4.63;2.88;;;;;;;;;;4994622;28;20049;-75
2023/09/17 06:55:15;;;;;;;4.50;3.10;;;;;;;;;;4994415;28;20477;-75
2023/09/17 06:57:40;;;;;;;5.03;3.17;;;;;;;;;;4994658;28;20267;-73
2023/09/17 07:00:06;;;;;;;3.60;2.90;;;;;;;;;;4994813;28;20287;-75
2023/09/17 07:02:32;;;;;;;4.55;3.30;;;;;;;;;;4994569;28;20267;-75
2023/09/17 07:05:00;;;;;;;3.45;2.78;;;;;;;;;;4994205;28;20405;-75
2023/09/17 07:07:25;;;;;;;5.70;2.80;;;;;;;;;;4994758;28;20440;-75
2023/09/17 07:09:50;;;;;;;3.40;2.45;;;;;;;;;;4994449;28;20018;-75
2023/09/17 07:12:16;;;;;;;3.67;2.60;;;;;;;;;;4976873;28;20024;-75
2023/09/17 07:14:41;;;;;;;5.65;2.78;;;;;;;;;;4995964;28;20421;-76
2023/09/17 07:17:06;;;;;;;5.30;2.97;;;;;;;;;;4994414;28;20109;-75
2023/09/17 07:19:33;;;;;;;3.53;2.80;;;;;;;;;;4977827;28;20022;-75
2023/09/17 07:21:58;;;;;;;4.63;3.00;;;;;;;;;;4976620;28;20307;-76
2023/09/17 07:24:24;;;;;;;3.45;2.80;;;;;;;;;;4994326;28;20437;-75
2023/09/17 07:26:49;;;;;;;4.55;2.90;;;;;;;;;;4976830;28;20109;-75
2023/09/17 07:29:14;;;;;;;4.65;3.00;;;;;;;;;;4994221;28;20474;-75
2023/09/17 07:31:41;;;;;;;6.13;2.70;;;;;;;;;;4993347;28;20050;-75
2023/09/17 07:34:06;;;;;;;4.25;2.60;;;;;;;;;;4993725;28;20322;-75
2023/09/17 07:36:31;;;;;;;6.97;2.70;;;;;;;;;;4994169;28;20419;-73
2023/09/17 07:38:56;;;;;;;2.77;2.50;;;;;;;;;;4993825;28;20397;-75
2023/09/17 07:41:22;;;;;;;4.30;2.57;;;;;;;;;;4993664;28;20280;-74
2023/09/17 07:43:47;;;;;;;6.50;2.80;;;;;;;;;;4993625;28;20310;-75
2023/09/17 07:46:13;;;;;;;2.95;2.53;;;;;;;;;;4993746;28;20393;-75
2023/09/17 07:48:39;;;;;;;5.00;3.10;;;;;;;;;;4993615;28;20038;-74
2023/09/17 07:51:05;;;;;;;3.20;2.67;;;;;;;;;;4993752;28;20037;-75
2023/09/17 07:53:32;;;;;;;5.93;2.92;;;;;;;;;;4976044;28;20026;-75
2023/09/17 07:55:58;;;;;;;3.25;2.60;;;;;;;;;;4993644;28;20022;-76
2023/09/17 07:58:23;;;;;;;3.92;2.60;;;;;;;;;;4993798;28;20026;-75
2023/09/17 08:00:48;;;;;;;6.82;2.63;;;;;;;;;;4976021;28;20026;-74
2023/09/17 08:03:16;;;;;;;4.30;2.80;;;;;;;;;;4993705;28;20486;-76
2023/09/17 08:05:49;;;;;;;3.38;2.70;;;;;;;;;;4993851;28;20275;-75
2023/09/17 08:08:14;;;;;;;4.80;3.10;;;;;;;;;;4993501;28;20057;-75
2023/09/17 08:10:40;;;;;;;4.70;2.67;;;;;;;;;;4976046;28;20549;-74
2023/09/17 08:13:06;;;;;;;5.05;2.67;;;;;;;;;;4993683;28;20053;-74
2023/09/17 08:15:31;;;;;;;4.05;3.00;;;;;;;;;;4976209;28;20035;-76
2023/09/17 08:17:57;;;;;;;4.38;2.40;;;;;;;;;;4993473;28;20026;-75
2023/09/17 08:20:23;;;;;;;3.90;2.80;;;;;;;;;;4993246;28;20031;-75
2023/09/17 08:22:50;;;;;;;4.13;3.15;;;;;;;;;;4993425;28;20062;-75
2023/09/17 08:25:16;;;;;;;3.80;2.65;;;;;;;;;;4993466;28;20152;-74
2023/09/17 08:27:41;;;;;;;4.03;2.67;;;;;;;;;;4993320;28;20050;-75
2023/09/17 08:30:11;;;;;;;4.30;2.95;;;;;;;;;;4993486;28;20014;-75
2023/09/17 08:32:41;;;;;;;6.35;3.25;;;;;;;;;;4993238;28;20026;-75
2023/09/17 08:35:07;;;;;;;4.60;2.85;;;;;;;;;;4993151;28;20029;-75
2023/09/17 08:37:34;;;;;;;3.67;2.47;;;;;;;;;;4993171;28;20045;-75
2023/09/17 08:39:59;;;;;;;3.67;2.58;;;;;;;;;;4993311;28;20454;-76
2023/09/17 08:42:27;;;;;;;3.78;2.83;;;;;;;;;;4993497;28;20046;-74
2023/09/17 08:44:56;;;;;;;3.97;3.22;;;;;;;;;;4979429;28;20105;-75
2023/09/17 08:47:22;;;;;;;4.93;3.30;;;;;;;;;;4996843;28;20026;-75
2023/09/17 08:49:47;;;;;;;5.80;3.00;;;;;;;;;;4996743;28;20034;-75
2023/09/17 08:52:17;;;;;;;8.98;2.97;;;;;;;;;;4996751;28;20378;-74
2023/09/17 08:54:43;;;;;;;4.85;2.78;;;;;;;;;;4996536;28;20038;-74
2023/09/17 08:57:12;;;;;;;3.20;2.58;;;;;;;;;;4997255;28;20026;-75
2023/09/17 08:59:45;;;;;;;5.10;3.00;;;;;;;;;;4979380;28;20030;-76
2023/09/17 09:02:17;;;;;;;5.50;3.05;;;;;;;;;;4979124;28;20485;-75
2023/09/17 09:04:47;;;;;;;6.63;2.85;;;;;;;;;;4996445;28;20045;-74
2023/09/17 09:07:13;;;;;;;4.18;2.92;;;;;;;;;;4996591;28;20049;-75
2023/09/17 09:09:40;;;;;;;3.65;2.90;;;;;;;;;;4996662;28;20031;-73
2023/09/17 09:12:05;;;;;;;4.00;2.80;;;;;;;;;;4996979;28;20045;-74
2023/09/17 09:14:31;;;;;;;4.38;2.80;;;;;;;;;;4996252;28;20022;-75
2023/09/17 09:16:56;;;;;;;4.55;2.88;;;;;;;;;;4996284;28;20161;-74
2023/09/17 09:19:21;;;;;;;5.00;2.90;;;;;;;;;;4996268;28;20018;-75
2023/09/17 09:21:47;;;;;;;4.63;3.00;;;;;;;;;;4996444;28;20492;-75
2023/09/17 09:24:12;;;;;;;4.30;2.70;;;;;;;;;;4996087;28;20631;-75
2023/09/17 09:26:38;;;;;;;4.07;2.80;;;;;;;;;;4978723;28;20022;-74
2023/09/17 09:29:08;;;;;;;5.78;2.80;;;;;;;;;;4996068;28;20336;-75
2023/09/17 09:31:34;;;;;;;4.40;3.05;;;;;;;;;;4978501;28;20056;-75
2023/09/17 09:34:00;;;;;;;8.82;2.97;;;;;;;;;;4995900;28;20065;-75
2023/09/17 09:36:27;;;;;;;5.18;2.85;;;;;;;;;;4995962;28;20061;-75
2023/09/17 09:38:54;;;;;;;4.22;2.70;;;;;;;;;;4995893;28;20036;-75
2023/09/17 09:41:23;;;;;;;3.08;2.42;;;;;;;;;;4996107;28;20109;-75
2023/09/17 09:43:56;;;;;;;3.22;2.58;;;;;;;;;;4978791;28;20037;-75
2023/09/17 09:46:24;;;;;;;2.45;2.10;;;;;;;;;;4978542;28;20061;-75
2023/09/17 09:48:51;;;;;;;3.28;2.70;;;;;;;;;;4978219;28;20037;-75
2023/09/17 09:51:25;;;;;;;4.65;2.90;;;;;;;;;;4995601;28;20049;-75
2023/09/17 09:53:53;;;;;;;4.85;2.42;;;;;;;;;;4977813;28;20027;-75
2023/09/17 09:56:21;;;;;;;3.55;2.60;;;;;;;;;;4977942;28;20092;-77
2023/09/17 09:58:49;;;;;;;3.40;2.65;;;;;;;;;;4996008;28;20029;-76
2023/09/17 10:01:16;;;;;;;6.78;2.83;;;;;;;;;;4978037;28;20121;-74
2023/09/17 10:03:41;;;;;;;4.20;2.70;;;;;;;;;;4995417;28;20076;-74
2023/09/17 10:06:07;;;;;;;2.80;2.47;;;;;;;;;;4995429;28;20485;-74
2023/09/17 10:08:39;;;;;;;2.80;2.20;;;;;;;;;;4977880;28;20022;-74
2023/09/17 10:11:06;;;;;;;3.28;2.30;;;;;;;;;;4977813;28;20030;-74
2023/09/17 10:13:33;;;;;;;3.90;2.50;;;;;;;;;;4995228;28;20053;-75
2023/09/17 10:15:58;;;;;;;8.98;2.60;;;;;;;;;;4995493;28;20025;-74
2023/09/17 10:18:28;;;;;;;4.15;2.85;;;;;;;;;;4995079;28;20018;-75
2023/09/17 10:20:54;;;;;;;5.40;2.42;;;;;;;;;;4995235;28;20109;-75
2023/09/17 10:23:22;;;;;;;3.97;2.55;;;;;;;;;;4995000;28;20022;-75
2023/09/17 10:25:48;;;;;;;12.32;2.70;;;;;;;;;;4977551;28;20409;-75
2023/09/17 10:28:15;;;;;;;5.90;2.33;;;;;;;;;;4977469;28;20026;-74
2023/09/17 10:30:41;;;;;;;7.65;2.53;;;;;;;;;;4995190;28;20022;-76
2023/09/17 10:33:09;;;;;;;2.85;2.42;;;;;;;;;;4977270;28;20022;-74
2023/09/17 10:35:36;;;;;;;5.82;2.70;;;;;;;;;;4994966;28;20034;-75
2023/09/17 10:38:03;;;;;;;2.42;2.10;;;;;;;;;;4977698;28;20367;-74
2023/09/17 10:40:30;;;;;;;2.97;2.35;;;;;;;;;;4994834;28;20441;-74
2023/09/17 10:42:57;;;;;;;3.67;2.60;;;;;;;;;;4994628;28;20037;-74
2023/09/17 10:45:24;;;;;;;8.13;2.53;;;;;;;;;;4977171;28;20049;-75
2023/09/17 10:47:50;;;;;;;5.35;2.63;;;;;;;;;;4995136;28;20026;-74
2023/09/17 10:50:17;;;;;;;3.03;2.38;;;;;;;;;;4994617;28;20072;-75
2023/09/17 10:52:42;;;;;;;4.75;2.38;;;;;;;;;;4994413;28;20049;-76
2023/09/17 10:55:08;;;;;;;3.80;2.65;;;;;;;;;;4994284;28;20030;-74
2023/09/17 10:57:42;;;;;;;3.47;2.60;;;;;;;;;;4994373;28;20033;-74
2023/09/17 11:00:14;;;;;;;5.43;2.60;;;;;;;;;;4994487;28;20367;-74
2023/09/17 11:02:45;;;;;;;5.93;2.63;;;;;;;;;;4994419;28;20054;-75
2023/09/17 11:05:13;;;;;;;3.55;2.65;;;;;;;;;;4994576;28;20108;-75
2023/09/17 11:07:40;;;;;;;4.28;2.50;;;;;;;;;;4993712;28;20026;-75
2023/09/17 11:10:06;;;;;;;5.70;2.50;;;;;;;;;;4994505;28;20026;-74
2023/09/17 11:12:31;;;;;;;3.03;2.40;;;;;;;;;;4976865;28;20077;-74
2023/09/17 11:14:57;;;;;;;4.10;2.63;;;;;;;;;;4994302;28;20488;-74
2023/09/17 11:17:32;;;;;;;4.30;2.95;;;;;;;;;;4994013;28;20034;-74
2023/09/17 11:19:59;;;;;;;3.80;2.35;;;;;;;;;;4994011;28;20398;-74
2023/09/17 11:22:27;;;;;;;3.65;2.63;;;;;;;;;;4994001;28;20112;-74
2023/09/17 11:24:52;;;;;;;3.67;2.78;;;;;;;;;;4976396;28;20022;-74
2023/09/17 11:27:18;;;;;;;3.38;2.65;;;;;;;;;;4994075;28;20030;-74
2023/09/17 11:29:45;;;;;;;4.57;3.10;;;;;;;;;;4994151;28;20031;-74
2023/09/17 11:32:12;;;;;;;6.00;2.55;;;;;;;;;;4994044;28;20057;-74
2023/09/17 11:34:41;;;;;;;3.78;2.55;;;;;;;;;;4976409;28;20072;-74
2023/09/17 11:37:06;;;;;;;2.70;2.42;;;;;;;;;;4993722;28;20026;-74
2023/09/17 11:39:33;;;;;;;3.85;2.60;;;;;;;;;;4976384;28;20029;-74
2023/09/17 11:42:07;;;;;;;4.47;2.60;;;;;;;;;;4994333;28;20465;-75
2023/09/17 11:44:35;;;;;;;4.82;2.60;;;;;;;;;;4993991;28;20033;-74
2023/09/17 11:47:01;;;;;;;2.83;2.38;;;;;;;;;;4976187;28;20062;-75
2023/09/17 11:49:28;;;;;;;3.25;2.63;;;;;;;;;;4976285;28;20042;-74
2023/09/17 11:51:57;;;;;;;3.85;2.80;;;;;;;;;;4993598;28;20553;-75
2023/09/17 11:54:25;;;;;;;4.00;2.45;;;;;;;;;;4993571;28;20054;-74
2023/09/17 11:56:55;;;;;;;4.13;2.63;;;;;;;;;;4976100;28;20109;-74
2023/09/17 11:59:22;;;;;;;3.40;2.42;;;;;;;;;;4993581;28;20547;-74
2023/09/17 12:02:00;;;;;;;6.20;2.72;;;;;;;;;;4993325;28;20034;-74
2023/09/17 12:04:29;;;;;;;3.22;2.60;;;;;;;;;;4974353;28;20125;-76
2023/09/17 12:06:55;;;;;;;7.25;4.22;;;;;;;;;;4992999;28;20034;-75
2023/09/17 12:11:57;;;;;;;2.60;2.40;;;;;;;;;;4992922;28;20023;-76
2023/09/17 12:14:23;;;;;;;2.78;2.25;;;;;;;;;;4992262;28;20121;-74
2023/09/17 12:16:49;;;;;;;3.08;2.40;;;;;;;;;;4993583;28;20065;-74
2023/09/17 12:19:14;;;;;;;2.67;2.25;;;;;;;;;;4995628;28;20037;-75
2023/09/17 12:21:40;;;;;;;2.85;2.10;;;;;;;;;;4979077;28;20022;-75
2023/09/17 12:24:08;;;;;;;3.25;2.38;;;;;;;;;;4997046;28;20551;-75
2023/09/17 12:26:56;;;;;;;3.13;2.65;;;;;;;;;;4997334;28;20030;-77
2023/09/17 12:29:21;;;;;;;3.63;2.33;;;;;;;;;;4997490;28;20416;-75
2023/09/17 12:31:47;;;;;;;3.97;2.50;;;;;;;;;;4979783;28;20018;-77
2023/09/17 12:34:12;;;;;;;3.38;2.47;;;;;;;;;;4997037;28;20627;-77
2023/09/17 12:36:38;;;;;;;3.60;2.30;;;;;;;;;;4997015;28;20058;-76
2023/09/17 12:39:04;;;;;;;2.78;1.92;;;;;;;;;;4996810;28;20314;-77
2023/09/17 12:41:29;;;;;;;2.70;2.00;;;;;;;;;;4996957;28;20026;-77
2023/09/17 12:43:55;;;;;;;2.83;2.00;;;;;;;;;;4996926;28;20028;-77
2023/09/17 12:46:20;;;;;;;3.83;1.90;;;;;;;;;;4997125;28;20068;-74
2023/09/17 12:48:45;;;;;;;3.17;1.90;;;;;;;;;;4979370;28;20030;-77
2023/09/17 12:51:11;;;;;;;3.10;1.80;;;;;;;;;;4997071;28;20014;-77
2023/09/17 12:53:37;;;;;;;2.58;1.83;;;;;;;;;;4996488;28;20444;-76
2023/09/17 12:56:04;;;;;;;3.22;2.03;;;;;;;;;;4979278;28;20450;-76
2023/09/17 12:58:33;;;;;;;2.72;2.00;;;;;;;;;;4979199;28;20034;-76
2023/09/17 13:01:13;;;;;;;5.85;2.30;;;;;;;;;;4996611;28;20367;-76
2023/09/17 13:03:58;;;;;;;4.57;1.98;;;;;;;;;;4996716;28;20442;-76
2023/09/17 13:06:25;;;;;;;2.92;2.38;;;;;;;;;;4978833;28;20030;-75
2023/09/17 13:08:51;;;;;;;4.30;2.55;;;;;;;;;;4996469;28;20072;-76
2023/09/17 13:11:17;;;;;;;2.97;2.40;;;;;;;;;;4997094;28;20023;-75
2023/09/17 13:13:46;;;;;;;2.22;1.90;;;;;;;;;;4996401;28;20108;-76
2023/09/17 13:16:12;;;;;;;4.65;2.35;;;;;;;;;;4996336;28;20030;-75
2023/09/17 13:18:38;;;;;;;6.63;2.47;;;;;;;;;;4978848;28;20073;-76
2023/09/17 13:21:04;;;;;;;3.25;2.50;;;;;;;;;;4996389;28;20117;-76
2023/09/17 13:23:30;;;;;;;6.30;3.10;;;;;;;;;;4996244;28;20112;-76
2023/09/17 13:25:55;;;;;;;3.53;2.60;;;;;;;;;;4978660;28;20030;-76
2023/09/17 13:28:20;;;;;;;4.65;2.47;;;;;;;;;;4996051;28;20037;-76
2023/09/17 13:30:46;;;;;;;3.28;2.28;;;;;;;;;;4995371;28;20034;-76
2023/09/17 13:33:13;;;;;;;3.03;2.55;;;;;;;;;;4978546;28;20026;-75
2023/09/17 13:35:42;;;;;;;6.35;2.83;;;;;;;;;;4996354;28;20034;-75
2023/09/17 13:38:11;;;;;;;3.17;2.42;;;;;;;;;;4978623;28;20037;-76
2023/09/17 13:40:50;;;;;;;3.58;2.60;;;;;;;;;;4979127;28;20385;-76
2023/09/17 13:43:18;;;;;;;3.67;2.85;;;;;;;;;;4995789;28;20026;-76
2023/09/17 13:45:50;;;;;;;3.53;2.63;;;;;;;;;;4995898;28;20371;-76
2023/09/17 13:48:17;;;;;;;2.90;2.17;;;;;;;;;;4978165;28;20033;-76
2023/09/17 13:50:42;;;;;;;3.63;2.30;;;;;;;;;;4995660;28;20054;-76
2023/09/17 13:53:07;;;;;;;3.72;2.50;;;;;;;;;;4995585;28;20449;-76
2023/09/17 13:55:55;;;;;;;5.07;2.35;;;;;;;;;;4978085;28;20068;-76
2023/09/17 13:58:21;;;;;;;3.72;2.30;;;;;;;;;;4977613;28;20093;-76
2023/09/17 14:00:57;;;;;;;2.92;2.50;;;;;;;;;;4995962;28;20030;-74
2023/09/17 14:03:23;;;;;;;2.55;2.13;;;;;;;;;;4997716;28;20113;-76
2023/09/17 14:05:48;;;;;;;3.67;2.53;;;;;;;;;;4994669;28;20126;-76
2023/09/17 14:08:14;;;;;;;3.45;2.95;;;;;;;;;;4976358;28;20034;-77
2023/09/17 14:10:41;;;;;;;4.53;2.70;;;;;;;;;;4994760;28;20022;-76
2023/09/17 14:13:06;;;;;;;5.25;2.75;;;;;;;;;;4993159;28;20947;-76
2023/09/17 14:15:34;;;;;;;6.43;2.90;;;;;;;;;;4977465;28;20165;-76
2023/09/17 14:17:59;;;;;;;3.05;2.67;;;;;;;;;;4995064;28;20026;-76
2023/09/17 14:20:25;;;;;;;3.50;2.75;;;;;;;;;;4995142;28;20041;-75
2023/09/17 14:22:50;;;;;;;3.50;2.80;;;;;;;;;;4994984;28;20034;-76
2023/09/17 14:25:15;;;;;;;4.55;2.88;;;;;;;;;;4977700;28;20114;-77
2023/09/17 14:27:40;;;;;;;3.20;2.72;;;;;;;;;;4994456;28;20070;-77
2023/09/17 14:30:10;;;;;;;3.95;2.88;;;;;;;;;;4977443;28;20105;-76
2023/09/17 14:32:37;;;;;;;3.42;2.80;;;;;;;;;;4994738;28;20061;-76
2023/09/17 14:35:03;;;;;;;4.57;2.63;;;;;;;;;;4994989;28;20392;-76
2023/09/17 14:37:28;;;;;;;3.95;2.72;;;;;;;;;;4994700;28;20121;-76
2023/09/17 14:39:54;;;;;;;5.43;3.40;;;;;;;;;;4994473;28;20023;-76
2023/09/17 14:42:19;;;;;;;5.22;3.10;;;;;;;;;;4994567;28;20287;-76